Polaris, Montana
Current Conditions -  °F | °C
As of 3:53 PM on Friday 19 Dec 2014 (Local Time) from KDLN Reporting Station
Overcast Overcast  
Wind Chill:   Ceiling: 8000
Heat Index:   Visibility: 10mi
Dew Point: -3°   Wind: 5mph
Humidity: 70%   Direction: 110°ESE
Pressure: 29.92"   Gusts: NA
Location:  45.37°N, 113.12°W
Report Text: KDLN 192253Z AUTO 11004KT 10SM SCT060 OVC080 02/M03 A2992 RMK AO2 SNB18E27 SLP151 P0000 T00221028
Loading
Personal Weather Stations






























Interactive Weather Map New forecast layout! Learn more

10-Day Weather Forecast

Advertisements
Track Severe Weather on mobile